Time;durP1;ratioP1;P1;durP2;ratioP2;P2;SDS_P1;SDS_P2;PMS_P1;PMS_P2;Temp;Humidity;BMP_temperature;BMP_pressure;BME280_temperature;BME280_humidity;BME280_pressure;Samples;Min_cycle;Max_cycle;Signal;HPM_P1;HPM_P2
2022/04/24 00:00:21;;;;;;;8.93;5.20;;;;;;;13.99;75.15;100259.00;5053770;28;20076;-62
2022/04/24 00:02:48;;;;;;;9.43;5.30;;;;;;;13.97;75.19;100272.31;5053822;28;20106;-63
2022/04/24 00:05:15;;;;;;;6.97;4.63;;;;;;;13.93;75.03;100276.16;5053559;28;20500;-63
2022/04/24 00:07:43;;;;;;;7.25;4.80;;;;;;;13.86;75.37;100273.19;5053668;28;20037;-63
2022/04/24 00:10:10;;;;;;;6.38;4.93;;;;;;;13.81;75.14;100277.94;5053489;28;20049;-63
2022/04/24 00:12:37;;;;;;;7.40;4.28;;;;;;;13.78;74.98;100283.47;5053520;28;20486;-63
2022/04/24 00:15:04;;;;;;;7.18;4.88;;;;;;;13.77;74.61;100281.78;5053498;28;20087;-63
2022/04/24 00:17:31;;;;;;;6.43;4.90;;;;;;;13.72;74.51;100286.59;5053173;28;20079;-63
2022/04/24 00:19:57;;;;;;;5.13;3.67;;;;;;;13.67;74.35;100278.19;5053091;28;20669;-63
2022/04/24 00:22:24;;;;;;;5.45;3.80;;;;;;;13.63;74.49;100272.31;5042876;28;20066;-62
2022/04/24 00:24:50;;;;;;;4.50;3.95;;;;;;;13.61;73.91;100273.38;5047932;28;20076;-62
2022/04/24 00:27:17;;;;;;;5.50;4.43;;;;;;;13.61;74.01;100274.25;5053241;28;20048;-62
2022/04/24 00:29:44;;;;;;;6.10;4.38;;;;;;;13.61;73.99;100273.38;5053136;28;20049;-62
2022/04/24 00:32:10;;;;;;;5.85;5.10;;;;;;;13.55;73.98;100269.44;5052890;28;20048;-62
2022/04/24 00:34:37;;;;;;;7.55;5.22;;;;;;;13.48;73.98;100268.22;5053042;28;20045;-63
2022/04/24 00:37:04;;;;;;;5.95;4.72;;;;;;;13.46;73.66;100260.44;5052904;28;20660;-63
2022/04/24 00:39:31;;;;;;;7.18;5.07;;;;;;;13.45;73.47;100257.94;5053007;28;20505;-62
2022/04/24 00:41:58;;;;;;;6.25;5.05;;;;;;;13.46;73.58;100259.59;5052703;28;20118;-62
2022/04/24 00:44:24;;;;;;;5.38;4.80;;;;;;;13.49;73.53;100262.00;5053185;28;20076;-63
2022/04/24 00:47:03;;;;;;;7.10;5.13;;;;;;;13.49;73.27;100267.28;5052803;28;20045;-62
2022/04/24 00:49:30;;;;;;;6.20;4.80;;;;;;;13.43;73.53;100267.75;5040412;28;20053;-63
2022/04/24 00:51:57;;;;;;;5.65;4.60;;;;;;;13.40;73.30;100268.81;5052690;28;20049;-63
2022/04/24 00:54:24;;;;;;;4.72;4.25;;;;;;;13.36;73.40;100259.44;5052609;28;20417;-62
2022/04/24 00:56:50;;;;;;;5.28;4.78;;;;;;;13.34;73.43;100256.91;5052576;28;20497;-63
2022/04/24 00:59:17;;;;;;;5.93;5.00;;;;;;;13.36;73.19;100251.53;5052228;28;20084;-62
2022/04/24 01:01:44;;;;;;;6.13;5.28;;;;;;;13.36;73.36;100259.44;5051500;28;20045;-63
2022/04/24 01:04:12;;;;;;;5.40;4.90;;;;;;;13.35;73.24;100252.47;5052607;28;21335;-63
2022/04/24 01:06:40;;;;;;;7.00;5.32;;;;;;;13.35;73.46;100255.13;5052654;28;20045;-62
2022/04/24 01:09:19;;;;;;;7.72;5.05;;;;;;;13.34;73.56;100261.34;5052603;28;20080;-63
2022/04/24 01:11:51;;;;;;;8.73;5.03;;;;;;;13.39;73.41;100265.34;5052901;28;20122;-63
2022/04/24 01:14:19;;;;;;;6.53;5.28;;;;;;;13.39;73.36;100260.06;5052632;28;20080;-62
2022/04/24 01:16:48;;;;;;;5.70;5.10;;;;;;;13.38;73.40;100252.25;5052645;28;20114;-63
2022/04/24 01:19:16;;;;;;;7.18;5.53;;;;;;;13.38;73.44;100255.75;5052124;28;20134;-63
2022/04/24 01:21:45;;;;;;;6.28;5.30;;;;;;;13.37;73.73;100255.88;5049122;28;20552;-62
2022/04/24 01:24:15;;;;;;;7.45;5.60;;;;;;;13.35;73.74;100255.13;5042000;28;20458;-62
2022/04/24 01:26:42;;;;;;;9.38;5.47;;;;;;;13.33;73.73;100257.88;5052153;28;20045;-63
2022/04/24 01:29:12;;;;;;;7.90;6.03;;;;;;;13.32;73.63;100255.34;5052381;28;20083;-62
2022/04/24 01:31:39;;;;;;;6.90;5.80;;;;;;;13.34;73.68;100264.81;5052067;28;20471;-62
2022/04/24 01:34:06;;;;;;;8.10;5.40;;;;;;;13.31;73.71;100256.31;5052058;28;20087;-63
2022/04/24 01:36:33;;;;;;;7.15;5.75;;;;;;;13.29;73.93;100263.47;5052468;28;20041;-62
2022/04/24 01:39:00;;;;;;;6.57;5.57;;;;;;;13.29;73.78;100263.47;5052188;28;20079;-63
2022/04/24 01:41:26;;;;;;;7.25;6.00;;;;;;;13.30;73.92;100265.16;5052302;28;20045;-63
2022/04/24 01:43:53;;;;;;;7.38;6.47;;;;;;;13.30;74.03;100266.00;5051982;28;20069;-62
2022/04/24 01:46:20;;;;;;;7.22;6.53;;;;;;;13.28;74.13;100260.03;5052191;28;20041;-63
2022/04/24 01:48:46;;;;;;;7.20;6.47;;;;;;;13.29;74.05;100266.94;5051978;28;20513;-62
2022/04/24 01:51:14;;;;;;;7.60;6.82;;;;;;;13.31;74.22;100272.13;5051744;28;20155;-63
2022/04/24 01:53:43;;;;;;;7.95;6.95;;;;;;;13.32;74.10;100268.50;5051893;28;20516;-62
2022/04/24 01:56:10;;;;;;;7.30;6.60;;;;;;;13.32;74.28;100268.50;5051993;28;20501;-63
2022/04/24 01:58:38;;;;;;;8.15;7.07;;;;;;;13.31;74.39;100259.78;5052181;28;20080;-63
2022/04/24 02:01:06;;;;;;;10.75;8.15;;;;;;;13.31;74.45;100251.03;5051276;28;20064;-63
2022/04/24 02:03:34;;;;;;;10.40;7.70;;;;;;;13.31;74.39;100248.41;5052049;28;20049;-62
2022/04/24 02:06:02;;;;;;;7.85;7.05;;;;;;;13.29;74.36;100245.03;5051544;28;20045;-63
2022/04/24 02:08:31;;;;;;;8.43;7.25;;;;;;;13.26;74.56;100240.84;5051925;28;20057;-63
2022/04/24 02:10:59;;;;;;;9.43;7.68;;;;;;;13.25;74.56;100244.44;5051755;28;20045;-63
2022/04/24 02:13:25;;;;;;;8.23;6.95;;;;;;;13.22;74.52;100236.78;5052039;28;20073;-63
2022/04/24 02:15:52;;;;;;;8.25;7.45;;;;;;;13.22;74.54;100242.03;5051672;28;20049;-63
2022/04/24 02:18:19;;;;;;;7.93;7.13;;;;;;;13.21;74.54;100249.09;5052058;28;20049;-63
2022/04/24 02:20:45;;;;;;;8.65;7.05;;;;;;;13.18;74.54;100251.09;5051603;28;20457;-62
2022/04/24 02:23:12;;;;;;;9.15;8.13;;;;;;;13.18;74.37;100254.59;5037516;28;20088;-63
2022/04/24 02:25:38;;;;;;;9.50;8.48;;;;;;;13.16;74.39;100259.13;5051842;28;20045;-63
2022/04/24 02:28:05;;;;;;;8.43;7.63;;;;;;;13.19;74.41;100261.56;5051735;28;20045;-63
2022/04/24 02:30:32;;;;;;;8.35;7.55;;;;;;;13.09;74.61;100267.63;5051644;28;20053;-63
2022/04/24 02:33:00;;;;;;;8.18;7.38;;;;;;;13.13;74.57;100283.09;5051664;28;20041;-62
2022/04/24 02:35:27;;;;;;;9.10;8.20;;;;;;;13.10;74.47;100298.28;5051839;28;20551;-62
2022/04/24 02:37:54;;;;;;;9.73;8.63;;;;;;;12.99;74.88;100306.97;5051746;28;20041;-62
2022/04/24 02:40:23;;;;;;;8.27;7.45;;;;;;;12.87;75.00;100306.09;5051560;28;20170;-62
2022/04/24 02:42:51;;;;;;;9.18;8.07;;;;;;;12.88;75.40;100295.44;5051640;28;20084;-62
2022/04/24 02:45:19;;;;;;;9.48;7.65;;;;;;;12.98;75.05;100284.25;5051562;28;20041;-62
2022/04/24 02:47:46;;;;;;;8.35;7.55;;;;;;;12.95;75.13;100269.50;5051567;28;20639;-63
2022/04/24 02:50:14;;;;;;;8.55;7.47;;;;;;;12.93;75.10;100266.13;5051212;28;20092;-63
2022/04/24 02:52:52;;;;;;;7.90;7.10;;;;;;;13.04;74.99;100260.09;5051457;28;20052;-63
2022/04/24 02:55:20;;;;;;;5.75;5.13;;;;;;;13.05;74.74;100248.56;5051607;28;20041;-62
2022/04/24 02:57:48;;;;;;;7.93;5.20;;;;;;;13.12;74.30;100235.78;5037525;28;20099;-62
2022/04/24 03:00:19;;;;;;;5.65;4.88;;;;;;;13.13;74.14;100229.53;5051210;28;20096;-62
2022/04/24 03:02:46;;;;;;;5.35;4.85;;;;;;;13.12;74.13;100220.81;5048483;28;20530;-62
2022/04/24 03:05:19;;;;;;;3.78;3.33;;;;;;;13.12;74.06;100209.44;5047872;28;20049;-63
2022/04/24 03:07:46;;;;;;;4.75;3.50;;;;;;;13.09;74.12;100204.41;5047795;28;20045;-63
2022/04/24 03:10:13;;;;;;;5.82;3.30;;;;;;;13.08;73.91;100203.56;5048067;28;20095;-62
2022/04/24 03:12:41;;;;;;;4.10;3.70;;;;;;;13.09;73.59;100197.34;5048934;28;20430;-63
2022/04/24 03:15:10;;;;;;;4.45;3.50;;;;;;;13.09;73.48;100192.09;5051609;28;20912;-62
2022/04/24 03:17:37;;;;;;;3.75;3.40;;;;;;;13.08;73.38;100198.31;5051442;28;20041;-62
2022/04/24 03:20:06;;;;;;;4.28;3.50;;;;;;;13.09;73.34;100204.41;5051514;28;20053;-63
2022/04/24 03:22:35;;;;;;;5.03;3.45;;;;;;;13.09;73.32;100202.63;5041673;28;20494;-63
2022/04/24 03:25:06;;;;;;;5.30;3.55;;;;;;;13.06;73.24;100208.09;5047749;28;20076;-63
2022/04/24 03:27:33;;;;;;;5.38;3.65;;;;;;;13.06;73.08;100195.78;5051399;28;20080;-62
2022/04/24 03:30:00;;;;;;;6.22;3.95;;;;;;;13.06;73.22;100193.16;5050908;28;20057;-62
2022/04/24 03:32:33;;;;;;;5.72;4.07;;;;;;;13.06;73.14;100192.31;5051303;28;20044;-63
2022/04/24 03:35:01;;;;;;;4.78;4.10;;;;;;;13.04;73.21;100191.59;5050990;28;20087;-63
2022/04/24 03:37:27;;;;;;;6.25;4.25;;;;;;;13.03;73.03;100197.81;5051105;28;20041;-63
2022/04/24 03:39:54;;;;;;;5.00;4.57;;;;;;;13.00;73.21;100195.41;5050911;28;20484;-63
2022/04/24 03:42:21;;;;;;;7.00;4.88;;;;;;;12.99;73.07;100199.84;5051099;28;20069;-63
2022/04/24 03:44:48;;;;;;;6.40;5.20;;;;;;;12.97;73.12;100191.19;5051032;28;20075;-62
2022/04/24 03:47:14;;;;;;;9.18;5.90;;;;;;;12.96;73.01;100200.06;5050772;28;20083;-63
2022/04/24 03:49:41;;;;;;;7.18;5.75;;;;;;;12.95;73.05;100197.53;5050847;28;20124;-62
2022/04/24 03:52:08;;;;;;;7.75;6.07;;;;;;;12.94;73.32;100209.88;5050902;28;20107;-63
2022/04/24 03:54:35;;;;;;;7.00;5.65;;;;;;;12.91;73.04;100218.00;5051156;28;20091;-63
2022/04/24 03:57:02;;;;;;;10.68;6.03;;;;;;;12.88;73.08;100221.69;5050720;28;20100;-63
2022/04/24 03:59:29;;;;;;;7.95;6.45;;;;;;;12.91;73.06;100220.63;5051052;28;20048;-63
2022/04/24 04:01:56;;;;;;;7.05;6.35;;;;;;;12.92;73.03;100214.41;5050552;28;20071;-63
2022/04/24 04:04:23;;;;;;;7.60;6.88;;;;;;;12.93;72.75;100231.06;5050464;28;20045;-63
2022/04/24 04:06:49;;;;;;;8.82;7.63;;;;;;;12.93;73.02;100231.06;5050640;28;20099;-63
2022/04/24 04:09:16;;;;;;;8.65;7.70;;;;;;;12.93;73.09;100242.44;5050583;28;20489;-63
2022/04/24 04:11:42;;;;;;;8.57;7.30;;;;;;;12.94;72.94;100246.75;5050410;28;20045;-63
2022/04/24 04:14:09;;;;;;;8.70;7.00;;;;;;;12.93;72.99;100255.59;5050273;28;20167;-63
2022/04/24 04:16:36;;;;;;;8.20;7.18;;;;;;;12.92;73.17;100251.28;5050707;28;20048;-63
2022/04/24 04:19:03;;;;;;;8.27;7.18;;;;;;;12.89;72.87;100254.97;5050411;28;20088;-63
2022/04/24 04:21:30;;;;;;;8.00;7.20;;;;;;;12.84;73.61;100262.38;5048927;28;20113;-63
2022/04/24 04:23:56;;;;;;;9.65;8.35;;;;;;;12.86;73.37;100255.22;5037116;28;20076;-63
2022/04/24 04:26:23;;;;;;;9.45;7.70;;;;;;;12.85;73.50;100257.94;5050234;28;20080;-63
2022/04/24 04:28:50;;;;;;;7.88;6.90;;;;;;;12.70;73.63;100266.03;5050269;28;20080;-63
2022/04/24 04:31:17;;;;;;;10.23;6.80;;;;;;;12.68;74.29;100262.66;5049896;28;20056;-63
2022/04/24 04:33:45;;;;;;;7.82;6.63;;;;;;;12.64;74.00;100255.13;5050196;28;20041;-63
2022/04/24 04:36:11;;;;;;;8.52;6.75;;;;;;;12.57;74.30;100263.47;5049755;28;20080;-63
2022/04/24 04:38:38;;;;;;;7.45;6.75;;;;;;;12.54;74.05;100260.22;5050018;28;20067;-62
2022/04/24 04:41:05;;;;;;;9.27;7.05;;;;;;;12.49;74.69;100257.91;5049985;28;20073;-62
2022/04/24 04:43:31;;;;;;;8.18;5.70;;;;;;;12.47;74.38;100272.97;5049781;28;20088;-63
2022/04/24 04:45:58;;;;;;;7.88;5.55;;;;;;;12.50;74.69;100256.97;5049771;28;20094;-63
2022/04/24 04:48:26;;;;;;;6.88;4.93;;;;;;;12.43;74.47;100261.00;5050121;28;20045;-63
2022/04/24 04:50:53;;;;;;;6.38;5.32;;;;;;;12.40;74.63;100264.69;5049345;28;20045;-62
2022/04/24 04:53:20;;;;;;;6.93;5.13;;;;;;;12.43;74.73;100261.00;5050173;28;20041;-62
2022/04/24 04:55:47;;;;;;;6.72;4.93;;;;;;;12.47;74.28;100253.69;5049702;28;20503;-62
2022/04/24 04:58:14;;;;;;;5.43;4.57;;;;;;;12.43;74.43;100254.88;5049380;28;20170;-62
2022/04/24 05:00:41;;;;;;;4.93;4.43;;;;;;;12.45;74.56;100253.00;5049349;28;20061;-62
2022/04/24 05:03:08;;;;;;;7.82;4.85;;;;;;;12.42;74.39;100254.06;5041514;28;20544;-62
2022/04/24 05:05:35;;;;;;;5.97;4.28;;;;;;;12.47;74.45;100248.44;5043630;28;20048;-62
2022/04/24 05:08:02;;;;;;;6.95;4.22;;;;;;;12.53;74.14;100245.38;5049572;28;20041;-63
2022/04/24 05:10:28;;;;;;;6.32;5.10;;;;;;;12.60;74.23;100241.34;5049463;28;20116;-62
2022/04/24 05:12:55;;;;;;;5.85;4.80;;;;;;;12.61;73.92;100242.16;5049042;28;20045;-63
2022/04/24 05:15:22;;;;;;;5.15;4.15;;;;;;;12.62;73.74;100241.22;5049207;28;20064;-63
2022/04/24 05:17:49;;;;;;;7.10;4.40;;;;;;;12.67;73.63;100236.47;5049265;28;20052;-63
2022/04/24 05:20:16;;;;;;;4.57;3.88;;;;;;;12.73;73.09;100236.88;5048815;28;20084;-63
2022/04/24 05:22:42;;;;;;;5.85;3.95;;;;;;;12.77;73.27;100221.66;5037701;28;20552;-62
2022/04/24 05:25:10;;;;;;;6.40;4.07;;;;;;;12.82;73.11;100205.53;5046408;28;20599;-64
2022/04/24 05:27:37;;;;;;;5.22;4.07;;;;;;;12.83;72.93;100205.41;5049072;28;20084;-62
2022/04/24 05:30:08;;;;;;;5.28;3.60;;;;;;;12.86;73.19;100214.88;5049039;28;20045;-63
2022/04/24 05:32:39;;;;;;;4.53;4.00;;;;;;;12.87;73.12;100212.16;5049237;28;20045;-63
2022/04/24 05:35:07;;;;;;;5.05;2.17;;;;;;;12.84;73.18;100204.47;5047956;28;20049;-63
2022/04/24 05:37:34;;;;;;;3.58;2.90;;;;;;;12.85;72.99;100224.56;5049054;28;20103;-62
2022/04/24 05:40:00;;;;;;;4.22;3.28;;;;;;;12.91;72.81;100231.16;5048757;28;20505;-62
2022/04/24 05:42:27;;;;;;;5.03;3.53;;;;;;;12.95;72.44;100226.50;5048869;28;20114;-62
2022/04/24 05:44:59;;;;;;;5.15;3.20;;;;;;;12.96;72.57;100220.28;5048723;28;20083;-63
2022/04/24 05:47:26;;;;;;;3.78;2.33;;;;;;;12.98;72.50;100235.03;5048881;28;20079;-63
2022/04/24 05:49:52;;;;;;;3.40;1.80;;;;;;;13.12;72.33;100247.16;5048636;28;20084;-63
2022/04/24 05:52:19;;;;;;;4.13;2.20;;;;;;;13.25;71.67;100243.59;5048845;28;20072;-63
2022/04/24 05:54:46;;;;;;;3.85;1.58;;;;;;;13.46;70.97;100241.13;5048979;28;20054;-63
2022/04/24 05:57:12;;;;;;;4.30;1.30;;;;;;;13.50;71.12;100238.16;5048469;28;20072;-63
2022/04/24 05:59:39;;;;;;;2.28;1.17;;;;;;;13.43;71.39;100233.47;5048569;28;20053;-63
2022/04/24 06:02:06;;;;;;;2.63;0.93;;;;;;;13.38;71.54;100236.44;5048495;28;20076;-63
2022/04/24 06:04:33;;;;;;;3.20;1.00;;;;;;;13.30;71.47;100239.66;5048659;28;20056;-63
2022/04/24 06:06:59;;;;;;;3.15;0.60;;;;;;;13.30;71.26;100265.16;5047396;28;20099;-63
2022/04/24 06:09:26;;;;;;;1.52;0.80;;;;;;;13.26;71.53;100267.19;5048449;28;20369;-62
2022/04/24 06:11:58;;;;;;;2.70;0.80;;;;;;;13.22;71.44;100255.22;5048518;28;20083;-62
2022/04/24 06:14:26;;;;;;;3.58;0.80;;;;;;;13.18;71.57;100241.44;5048717;28;20045;-63
2022/04/24 06:16:53;;;;;;;2.40;0.73;;;;;;;13.21;71.27;100241.19;5048611;28;20041;-63
2022/04/24 06:19:19;;;;;;;3.95;0.75;;;;;;;13.23;71.43;100252.47;5047922;28;20045;-63
2022/04/24 06:21:46;;;;;;;1.80;0.50;;;;;;;13.25;71.26;100251.50;5044960;28;20050;-63
2022/04/24 06:24:15;;;;;;;1.58;0.60;;;;;;;13.28;71.04;100256.53;5038737;28;20045;-62
2022/04/24 06:26:44;;;;;;;3.05;0.60;;;;;;;13.29;71.09;100256.41;5048652;28;20505;-63
2022/04/24 06:29:11;;;;;;;3.50;0.70;;;;;;;13.34;70.88;100259.53;5048479;28;20508;-63
2022/04/24 06:31:38;;;;;;;3.55;0.70;;;;;;;13.38;70.83;100266.31;5048474;28;20053;-63
2022/04/24 06:34:05;;;;;;;2.20;0.50;;;;;;;13.41;70.58;100274.91;5048403;28;20041;-63
2022/04/24 06:36:31;;;;;;;2.88;0.60;;;;;;;13.37;70.43;100277.78;5048347;28;20708;-62
2022/04/24 06:39:00;;;;;;;1.45;0.60;;;;;;;13.32;70.69;100281.69;5048193;28;20077;-62
2022/04/24 06:41:27;;;;;;;2.08;0.40;;;;;;;13.32;70.32;100272.00;5048319;28;20053;-62
2022/04/24 06:43:54;;;;;;;4.57;0.70;;;;;;;13.33;70.45;100278.09;5048421;28;20041;-62
2022/04/24 06:46:21;;;;;;;1.40;0.57;;;;;;;13.31;70.58;100270.31;5048690;28;20053;-62
2022/04/24 06:48:47;;;;;;;1.67;0.60;;;;;;;13.30;70.47;100275.72;5051927;28;20049;-63
2022/04/24 06:51:14;;;;;;;1.08;0.40;;;;;;;13.27;70.26;100282.06;5051666;28;20041;-63
2022/04/24 06:53:41;;;;;;;3.15;0.50;;;;;;;13.22;70.79;100295.56;5052086;28;20049;-62
2022/04/24 06:56:08;;;;;;;2.35;0.40;;;;;;;13.18;70.68;100301.16;5050731;28;20041;-62
2022/04/24 06:58:35;;;;;;;0.90;0.40;;;;;;;13.04;71.08;100308.31;5052079;28;20049;-62
2022/04/24 07:01:08;;;;;;;1.20;0.40;;;;;;;12.97;71.39;100314.97;5051470;28;20044;-63
2022/04/24 07:03:35;;;;;;;0.80;0.40;;;;;;;13.02;71.27;100299.69;5051916;28;20080;-62
2022/04/24 07:06:02;;;;;;;2.28;0.50;;;;;;;13.05;70.81;100307.38;5051605;28;20049;-63
2022/04/24 07:08:33;;;;;;;1.15;0.47;;;;;;;13.02;71.11;100302.31;5051902;28;20053;-63
2022/04/24 07:11:00;;;;;;;3.95;1.00;;;;;;;13.04;70.87;100305.69;5051858;28;20044;-63
2022/04/24 07:13:26;;;;;;;2.28;0.50;;;;;;;13.04;71.19;100302.22;5051590;28;20057;-63
2022/04/24 07:15:53;;;;;;;1.88;0.50;;;;;;;13.05;70.88;100298.63;5051691;28;20049;-62
2022/04/24 07:18:21;;;;;;;2.63;0.70;;;;;;;13.06;71.36;100287.13;5051325;28;20079;-62
2022/04/24 07:20:47;;;;;;;3.45;0.63;;;;;;;13.07;71.20;100288.81;5051494;28;20052;-63
2022/04/24 07:23:15;;;;;;;1.10;0.40;;;;;;;13.09;71.12;100289.56;5037046;28;20421;-63
2022/04/24 07:25:45;;;;;;;2.65;0.55;;;;;;;13.11;71.16;100290.25;5051337;28;20094;-62
2022/04/24 07:28:17;;;;;;;2.85;1.42;;;;;;;13.12;70.99;100283.22;5051138;28;20454;-62
2022/04/24 07:30:44;;;;;;;2.00;0.60;;;;;;;13.12;71.18;100283.22;5051475;28;20045;-63
2022/04/24 07:33:12;;;;;;;2.85;0.60;;;;;;;13.14;71.20;100283.91;5050821;28;20053;-63
2022/04/24 07:35:40;;;;;;;4.03;0.65;;;;;;;13.15;71.29;100281.16;5051236;28;20099;-63
2022/04/24 07:38:07;;;;;;;34.72;23.38;;;;;;;13.20;70.87;100280.81;5051114;28;20080;-63
2022/04/24 07:40:36;;;;;;;6.45;5.07;;;;;;;13.25;70.67;100289.22;5050990;28;20075;-63
2022/04/24 07:43:05;;;;;;;2.10;0.90;;;;;;;13.31;70.20;100293.22;5051227;28;20045;-64
2022/04/24 07:45:40;;;;;;;2.67;1.05;;;;;;;13.34;70.14;100282.41;5051118;28;20084;-62
2022/04/24 07:48:08;;;;;;;8.77;7.50;;;;;;;13.37;69.66;100284.88;5051094;28;20048;-63
2022/04/24 07:50:40;;;;;;;7.13;6.53;;;;;;;13.38;69.48;100290.03;5050791;28;20315;-62
2022/04/24 07:53:08;;;;;;;49.58;35.50;;;;;;;13.30;69.26;100297.63;5050643;28;20088;-63
2022/04/24 07:55:35;;;;;;;9.02;6.75;;;;;;;13.34;69.04;100295.59;5050958;28;20076;-62
2022/04/24 07:58:03;;;;;;;3.58;2.65;;;;;;;13.31;68.90;100294.03;5050139;28;20087;-63
2022/04/24 08:00:31;;;;;;;11.57;7.68;;;;;;;13.35;69.13;100292.00;5050387;28;20071;-62
2022/04/24 08:03:01;;;;;;;10.80;8.75;;;;;;;13.28;68.86;100290.78;5050692;28;20509;-62
2022/04/24 08:05:37;;;;;;;4.18;2.60;;;;;;;13.27;68.89;100297.00;5050633;28;20045;-62
2022/04/24 08:08:06;;;;;;;5.45;3.85;;;;;;;13.23;69.38;100297.25;5037411;28;20079;-62
2022/04/24 08:10:34;;;;;;;8.77;7.95;;;;;;;13.18;69.46;100304.66;5051043;28;20094;-63
2022/04/24 08:13:04;;;;;;;3.25;2.13;;;;;;;13.17;69.63;100302.97;5050527;28;20481;-62
2022/04/24 08:15:34;;;;;;;5.55;4.78;;;;;;;13.13;69.80;100319.13;5050664;28;20412;-62
2022/04/24 08:18:02;;;;;;;15.82;11.07;;;;;;;12.98;70.28;100314.03;5050135;28;20045;-62
2022/04/24 08:20:30;;;;;;;17.95;11.43;;;;;;;12.91;70.40;100318.06;5048892;28;20065;-62
2022/04/24 08:22:59;;;;;;;12.48;8.27;;;;;;;12.84;70.68;100316.84;5036947;28;20525;-62
2022/04/24 08:25:26;;;;;;;39.72;29.95;;;;;;;12.86;70.67;100321.06;5049823;28;20122;-62
2022/04/24 08:27:55;;;;;;;33.00;22.70;;;;;;;12.82;70.69;100322.22;5050166;28;20045;-62
2022/04/24 08:30:23;;;;;;;40.90;27.92;;;;;;;12.84;70.75;100325.59;5049966;28;20122;-62
2022/04/24 08:32:51;;;;;;;17.08;11.82;;;;;;;12.83;70.72;100339.69;5050151;28;20045;-63
2022/04/24 08:35:21;;;;;;;35.85;22.10;;;;;;;12.98;70.58;100344.81;5050019;28;20037;-63
2022/04/24 08:37:48;;;;;;;20.00;11.90;;;;;;;12.99;70.29;100341.19;5050156;28;20505;-62
2022/04/24 08:40:17;;;;;;;75.45;54.05;;;;;;;13.11;69.74;100342.13;5049715;28;20217;-62
2022/04/24 08:42:44;;;;;;;23.75;15.55;;;;;;;13.10;69.90;100345.69;5049837;28;20084;-62
2022/04/24 08:45:13;;;;;;;22.60;15.20;;;;;;;12.99;70.12;100347.31;5049559;28;20140;-62
2022/04/24 08:47:40;;;;;;;30.15;22.38;;;;;;;12.89;70.51;100349.78;5050001;28;20076;-62
2022/04/24 08:50:08;;;;;;;82.10;49.70;;;;;;;12.90;70.45;100348.00;5049450;28;20049;-62
2022/04/24 08:52:35;;;;;;;4.35;3.30;;;;;;;12.81;70.32;100348.66;5049531;28;20076;-62
2022/04/24 08:55:03;;;;;;;7.05;4.20;;;;;;;12.78;69.94;100349.72;5049776;28;20092;-63
2022/04/24 08:57:33;;;;;;;1.70;1.60;;;;;;;12.83;69.86;100352.03;5049727;28;20402;-62
2022/04/24 09:00:00;;;;;;;1.48;1.00;;;;;;;12.84;69.17;100357.19;5049579;28;20118;-62
2022/04/24 09:02:48;;;;;;;3.22;2.75;;;;;;;12.81;69.25;100351.28;5049519;28;20067;-62
2022/04/24 09:05:15;;;;;;;5.45;3.63;;;;;;;12.86;69.06;100351.78;5049350;28;20106;-62
2022/04/24 09:07:43;;;;;;;7.95;5.13;;;;;;;12.90;68.97;100355.91;5049354;28;20448;-63
2022/04/24 09:10:30;;;;;;;4.13;2.58;;;;;;;12.93;68.72;100353.03;5049599;28;20044;-62
2022/04/24 09:12:59;;;;;;;0.73;0.17;;;;;;;12.94;68.68;100361.78;5048965;28;20623;-63
2022/04/24 09:15:28;;;;;;;4.68;4.28;;;;;;;12.96;68.72;100365.97;5049199;28;20114;-62
2022/04/24 09:18:02;;;;;;;7.88;7.38;;;;;;;13.05;68.57;100367.97;5048867;28;20045;-63
2022/04/24 09:20:41;;;;;;;4.85;4.25;;;;;;;13.07;68.78;100375.75;5048966;28;20615;-62
2022/04/24 09:23:08;;;;;;;6.68;4.43;;;;;;;13.13;68.77;100383.19;5034871;28;20049;-62
2022/04/24 09:25:41;;;;;;;3.55;3.25;;;;;;;13.23;68.98;100383.38;5049114;28;20076;-62
2022/04/24 09:28:07;;;;;;;3.22;2.03;;;;;;;13.24;69.11;100387.66;5048868;28;20045;-62
2022/04/24 09:30:36;;;;;;;2.55;1.70;;;;;;;13.23;69.30;100396.53;5048958;28;20092;-62
2022/04/24 09:33:06;;;;;;;4.25;3.90;;;;;;;13.09;69.78;100402.81;5049033;28;20048;-63
2022/04/24 09:35:36;;;;;;;21.23;15.45;;;;;;;13.15;69.91;100410.25;5048781;28;20104;-62
2022/04/24 09:38:15;;;;;;;8.98;6.00;;;;;;;13.05;70.30;100411.88;5048963;28;20084;-62
2022/04/24 09:40:47;;;;;;;2.03;0.73;;;;;;;13.04;70.02;100412.84;5048757;28;20094;-63
2022/04/24 09:43:16;;;;;;;2.15;1.20;;;;;;;13.13;69.66;100409.53;5048807;28;20088;-62
2022/04/24 09:45:50;;;;;;;4.28;2.78;;;;;;;13.13;69.71;100416.59;5048557;28;20076;-62
2022/04/24 09:48:19;;;;;;;4.80;2.40;;;;;;;13.18;69.48;100417.94;5048908;28;20132;-63
2022/04/24 09:50:50;;;;;;;5.78;3.42;;;;;;;13.44;68.61;100417.84;5034208;28;20055;-63
2022/04/24 09:53:19;;;;;;;9.85;6.35;;;;;;;13.68;68.32;100420.44;5049001;28;20062;-63
2022/04/24 09:55:49;;;;;;;2.83;1.52;;;;;;;13.63;68.97;100433.13;5049020;28;20076;-62
2022/04/24 09:58:17;;;;;;;16.33;13.75;;;;;;;13.66;68.75;100432.06;5048757;28;20401;-62
2022/04/24 10:00:46;;;;;;;10.75;9.63;;;;;;;13.74;68.17;100427.09;5048312;28;20560;-63
2022/04/24 10:03:16;;;;;;;6.45;5.20;;;;;;;13.94;68.14;100417.66;5048549;28;20045;-62
2022/04/24 10:05:45;;;;;;;9.43;6.10;;;;;;;13.94;68.03;100422.09;5048268;28;20049;-63
2022/04/24 10:08:13;;;;;;;19.92;10.73;;;;;;;14.01;67.92;100423.31;5048346;28;20049;-63
2022/04/24 10:10:47;;;;;;;26.05;14.48;;;;;;;14.54;66.61;100420.94;5047185;28;20095;-63
2022/04/24 10:13:14;;;;;;;25.05;13.93;;;;;;;14.67;66.48;100420.84;5048353;28;20079;-62
2022/04/24 10:15:48;;;;;;;78.15;42.28;;;;;;;14.81;65.55;100417.09;5048419;28;20076;-62
2022/04/24 10:18:36;;;;;;;22.63;12.70;;;;;;;14.89;64.88;100419.13;5048590;28;20080;-62
2022/04/24 10:21:03;;;;;;;190.15;118.70;;;;;;;15.10;63.97;100415.75;5047971;28;20049;-62
2022/04/24 10:23:33;;;;;;;380.33;230.05;;;;;;;15.41;62.86;100416.69;5038381;28;20505;-63
2022/04/24 10:26:01;;;;;;;24.27;15.75;;;;;;;15.24;63.37;100417.25;5052805;28;20470;-63
2022/04/24 10:28:37;;;;;;;15.30;9.75;;;;;;;14.89;63.32;100419.13;5052456;28;20091;-63
2022/04/24 10:31:04;;;;;;;8.48;5.60;;;;;;;14.72;63.71;100420.47;5052279;28;20041;-63
2022/04/24 10:33:33;;;;;;;10.73;7.50;;;;;;;14.72;63.46;100417.84;5052298;28;20091;-62
2022/04/24 10:36:11;;;;;;;31.33;19.17;;;;;;;14.66;63.63;100415.69;5052223;28;20169;-63
2022/04/24 10:38:53;;;;;;;40.60;23.95;;;;;;;14.58;63.54;100416.25;5052040;28;20130;-63
2022/04/24 10:41:40;;;;;;;47.75;39.13;;;;;;;14.59;63.40;100414.44;5052120;28;20144;-62
2022/04/24 10:44:17;;;;;;;1.88;1.50;;;;;;;14.54;63.47;100414.81;5051979;28;20091;-63
2022/04/24 10:46:47;;;;;;;9.73;7.78;;;;;;;14.57;62.92;100411.09;5052230;28;20488;-63
2022/04/24 10:49:16;;;;;;;1.50;1.20;;;;;;;15.02;61.78;100403.16;5051804;28;20068;-63
2022/04/24 10:51:45;;;;;;;1.42;1.13;;;;;;;15.73;59.66;100397.31;5051744;28;20080;-63
2022/04/24 10:54:16;;;;;;;29.80;17.77;;;;;;;15.98;58.70;100388.16;5051485;28;20105;-63
2022/04/24 10:56:49;;;;;;;18.85;12.13;;;;;;;16.33;58.02;100384.28;5051856;28;20095;-63
2022/04/24 10:59:18;;;;;;;1.73;0.80;;;;;;;16.45;57.82;100371.78;5051614;28;20065;-63
2022/04/24 11:01:47;;;;;;;8.00;4.85;;;;;;;16.47;58.07;100374.31;5051629;28;20137;-63
2022/04/24 11:04:15;;;;;;;15.35;9.32;;;;;;;16.58;57.65;100376.84;5051624;28;20477;-63
2022/04/24 11:06:54;;;;;;;13.25;7.97;;;;;;;16.49;57.70;100373.19;5051935;28;20189;-63
2022/04/24 11:09:22;;;;;;;3.85;2.30;;;;;;;16.86;56.57;100366.47;5051531;28;20092;-63
2022/04/24 11:11:56;;;;;;;0.85;0.45;;;;;;;17.04;55.86;100363.13;5051618;28;20075;-62
2022/04/24 11:14:25;;;;;;;1.05;0.38;;;;;;;16.61;56.68;100368.63;5051782;28;20156;-63
2022/04/24 11:16:54;;;;;;;0.35;0.13;;;;;;;17.03;55.08;100354.34;5051521;28;20045;-63
2022/04/24 11:19:26;;;;;;;0.70;0.20;;;;;;;16.95;54.78;100349.75;5051167;28;20462;-63
2022/04/24 11:21:56;;;;;;;0.10;0.10;;;;;;;16.85;55.08;100346.22;5047062;28;20573;-63
2022/04/24 11:24:27;;;;;;;1.73;0.95;;;;;;;17.36;53.41;100340.84;5042701;28;20084;-62
2022/04/24 11:26:56;;;;;;;2.63;1.65;;;;;;;17.55;52.58;100338.13;5051276;28;20459;-63